MU48 weather

Sunburst Ranch Airport
Gainesville, Missouri, United States

Public forecast

Using degrees Fahrenheit for public forecast. Weather courtesy of forecast.io.

Closest aviation weather report (METAR) to Sunburst Ranch Airport

Closest report is West Plains Municipal Airport, 20.6 nm (38.1 km) NE. Retrieved 2020/07/07 10:53 UTC (27 minutes ago):

KUNO 071053Z AUTO 00000KT 8SM CLR 21/20 A3003 RMK AO2 SLP158 T02110200

Closest aviation forecast (TAF) to Sunburst Ranch Airport

Closest forecast is Ozark Regional Airport, 20.7 nm (38.3 km) SW. Retrieved 2020/07/07 06:22 UTC (5 hours ago):

TAF KBPK 070520Z 0706/0806 VRB05KT P6SM FEW250 FM070900 VRB02KT 5SM BR SCT010 TEMPO 0710/0713 2SM BR BKN005 FM071400 14006KT P6SM VCSH SCT050